sensor_id;sensor_type;location;lat;lon;timestamp;P1;durP1;ratioP1;P2;durP2;ratioP2
45728;SDS011;31439;53.512;10.206;2023-09-12T00:02:06;16.85;;;13.02;;
45728;SDS011;31439;53.512;10.206;2023-09-12T00:04:31;17.58;;;13.15;;
45728;SDS011;31439;53.512;10.206;2023-09-12T00:06:57;17.98;;;14.27;;
45728;SDS011;31439;53.512;10.206;2023-09-12T00:09:23;23.85;;;15.00;;
45728;SDS011;31439;53.512;10.206;2023-09-12T00:11:48;20.80;;;16.88;;
45728;SDS011;31439;53.512;10.206;2023-09-12T00:14:17;20.95;;;16.98;;
45728;SDS011;31439;53.512;10.206;2023-09-12T00:16:43;22.90;;;17.05;;
45728;SDS011;31439;53.512;10.206;2023-09-12T00:19:08;23.38;;;17.65;;
45728;SDS011;31439;53.512;10.206;2023-09-12T00:21:34;27.10;;;18.48;;
45728;SDS011;31439;53.512;10.206;2023-09-12T00:24:00;26.60;;;19.75;;
45728;SDS011;31439;53.512;10.206;2023-09-12T00:26:26;25.25;;;19.67;;
45728;SDS011;31439;53.512;10.206;2023-09-12T00:28:51;33.63;;;24.30;;
45728;SDS011;31439;53.512;10.206;2023-09-12T00:31:17;33.20;;;27.65;;
45728;SDS011;31439;53.512;10.206;2023-09-12T00:33:43;37.55;;;29.08;;
45728;SDS011;31439;53.512;10.206;2023-09-12T00:36:08;45.58;;;31.17;;
45728;SDS011;31439;53.512;10.206;2023-09-12T00:38:34;46.90;;;33.97;;
45728;SDS011;31439;53.512;10.206;2023-09-12T00:40:59;47.92;;;35.58;;
45728;SDS011;31439;53.512;10.206;2023-09-12T00:43:25;48.95;;;36.20;;
45728;SDS011;31439;53.512;10.206;2023-09-12T00:45:50;54.65;;;38.05;;
45728;SDS011;31439;53.512;10.206;2023-09-12T00:48:16;51.20;;;38.92;;
45728;SDS011;31439;53.512;10.206;2023-09-12T00:50:44;54.72;;;37.92;;
45728;SDS011;31439;53.512;10.206;2023-09-12T00:53:12;53.30;;;37.97;;
45728;SDS011;31439;53.512;10.206;2023-09-12T00:55:39;56.63;;;40.60;;
45728;SDS011;31439;53.512;10.206;2023-09-12T00:58:10;54.92;;;40.13;;
45728;SDS011;31439;53.512;10.206;2023-09-12T01:00:36;57.80;;;39.40;;
45728;SDS011;31439;53.512;10.206;2023-09-12T01:03:02;54.38;;;39.60;;
45728;SDS011;31439;53.512;10.206;2023-09-12T01:05:28;56.17;;;39.47;;
45728;SDS011;31439;53.512;10.206;2023-09-12T01:07:54;56.65;;;39.00;;
45728;SDS011;31439;53.512;10.206;2023-09-12T01:10:20;56.25;;;37.95;;
45728;SDS011;31439;53.512;10.206;2023-09-12T01:12:45;53.03;;;37.92;;
45728;SDS011;31439;53.512;10.206;2023-09-12T01:15:11;53.55;;;37.20;;
45728;SDS011;31439;53.512;10.206;2023-09-12T01:17:42;57.40;;;37.67;;
45728;SDS011;31439;53.512;10.206;2023-09-12T01:20:11;59.72;;;37.78;;
45728;SDS011;31439;53.512;10.206;2023-09-12T01:25:48;57.90;;;38.88;;
45728;SDS011;31439;53.512;10.206;2023-09-12T01:28:27;55.50;;;38.10;;
45728;SDS011;31439;53.512;10.206;2023-09-12T01:30:56;54.53;;;37.55;;
45728;SDS011;31439;53.512;10.206;2023-09-12T01:33:24;58.03;;;37.35;;
45728;SDS011;31439;53.512;10.206;2023-09-12T01:35:50;56.47;;;38.25;;
45728;SDS011;31439;53.512;10.206;2023-09-12T01:38:15;57.03;;;36.95;;
45728;SDS011;31439;53.512;10.206;2023-09-12T01:43:09;57.03;;;38.08;;
45728;SDS011;31439;53.512;10.206;2023-09-12T01:45:35;53.92;;;37.30;;
45728;SDS011;31439;53.512;10.206;2023-09-12T01:48:01;54.03;;;38.33;;
45728;SDS011;31439;53.512;10.206;2023-09-12T01:50:28;50.88;;;36.30;;
45728;SDS011;31439;53.512;10.206;2023-09-12T01:52:56;60.55;;;36.45;;
45728;SDS011;31439;53.512;10.206;2023-09-12T01:55:22;54.80;;;37.50;;
45728;SDS011;31439;53.512;10.206;2023-09-12T01:57:49;53.65;;;37.83;;
45728;SDS011;31439;53.512;10.206;2023-09-12T02:00:17;54.83;;;36.65;;
45728;SDS011;31439;53.512;10.206;2023-09-12T02:02:43;56.20;;;38.00;;
45728;SDS011;31439;53.512;10.206;2023-09-12T02:05:11;54.03;;;37.58;;
45728;SDS011;31439;53.512;10.206;2023-09-12T02:07:41;53.35;;;35.67;;
45728;SDS011;31439;53.512;10.206;2023-09-12T02:10:07;54.50;;;35.67;;
45728;SDS011;31439;53.512;10.206;2023-09-12T02:12:34;53.90;;;36.35;;
45728;SDS011;31439;53.512;10.206;2023-09-12T02:15:00;48.58;;;34.63;;
45728;SDS011;31439;53.512;10.206;2023-09-12T02:17:26;52.70;;;34.28;;
45728;SDS011;31439;53.512;10.206;2023-09-12T02:19:51;47.67;;;35.22;;
45728;SDS011;31439;53.512;10.206;2023-09-12T02:22:17;53.40;;;36.40;;
45728;SDS011;31439;53.512;10.206;2023-09-12T02:24:42;52.75;;;35.88;;
45728;SDS011;31439;53.512;10.206;2023-09-12T02:27:08;51.92;;;36.50;;
45728;SDS011;31439;53.512;10.206;2023-09-12T02:29:33;48.45;;;35.70;;
45728;SDS011;31439;53.512;10.206;2023-09-12T02:31:59;51.58;;;34.38;;
45728;SDS011;31439;53.512;10.206;2023-09-12T02:34:25;55.13;;;34.03;;
45728;SDS011;31439;53.512;10.206;2023-09-12T02:36:50;47.83;;;34.03;;
45728;SDS011;31439;53.512;10.206;2023-09-12T02:39:16;48.05;;;32.65;;
45728;SDS011;31439;53.512;10.206;2023-09-12T02:41:42;40.70;;;30.02;;
45728;SDS011;31439;53.512;10.206;2023-09-12T02:44:07;46.13;;;31.48;;
45728;SDS011;31439;53.512;10.206;2023-09-12T02:46:33;42.33;;;31.23;;
45728;SDS011;31439;53.512;10.206;2023-09-12T02:48:59;41.47;;;30.80;;
45728;SDS011;31439;53.512;10.206;2023-09-12T02:51:25;41.30;;;29.65;;
45728;SDS011;31439;53.512;10.206;2023-09-12T02:53:51;37.08;;;28.80;;
45728;SDS011;31439;53.512;10.206;2023-09-12T02:56:16;40.75;;;28.02;;
45728;SDS011;31439;53.512;10.206;2023-09-12T02:58:42;38.75;;;28.80;;
45728;SDS011;31439;53.512;10.206;2023-09-12T03:01:14;39.10;;;29.23;;
45728;SDS011;31439;53.512;10.206;2023-09-12T03:03:45;41.20;;;28.98;;
45728;SDS011;31439;53.512;10.206;2023-09-12T03:06:12;40.13;;;28.50;;
45728;SDS011;31439;53.512;10.206;2023-09-12T03:08:38;38.97;;;27.95;;
45728;SDS011;31439;53.512;10.206;2023-09-12T03:11:10;39.00;;;28.15;;
45728;SDS011;31439;53.512;10.206;2023-09-12T03:13:36;37.90;;;27.67;;
45728;SDS011;31439;53.512;10.206;2023-09-12T03:16:11;36.28;;;28.08;;
45728;SDS011;31439;53.512;10.206;2023-09-12T03:18:38;38.00;;;28.27;;
45728;SDS011;31439;53.512;10.206;2023-09-12T03:21:06;40.88;;;27.90;;
45728;SDS011;31439;53.512;10.206;2023-09-12T03:23:32;39.10;;;29.17;;
45728;SDS011;31439;53.512;10.206;2023-09-12T03:26:05;40.40;;;28.58;;
45728;SDS011;31439;53.512;10.206;2023-09-12T03:28:31;41.45;;;29.83;;
45728;SDS011;31439;53.512;10.206;2023-09-12T03:31:03;41.97;;;31.48;;
45728;SDS011;31439;53.512;10.206;2023-09-12T03:33:36;42.70;;;28.95;;
45728;SDS011;31439;53.512;10.206;2023-09-12T03:36:02;41.45;;;29.35;;
45728;SDS011;31439;53.512;10.206;2023-09-12T03:38:28;38.80;;;30.25;;
45728;SDS011;31439;53.512;10.206;2023-09-12T03:40:54;46.58;;;33.08;;
45728;SDS011;31439;53.512;10.206;2023-09-12T03:43:19;48.17;;;34.45;;
45728;SDS011;31439;53.512;10.206;2023-09-12T03:45:45;48.22;;;35.40;;
45728;SDS011;31439;53.512;10.206;2023-09-12T03:48:11;52.38;;;36.97;;
45728;SDS011;31439;53.512;10.206;2023-09-12T03:50:36;54.58;;;39.38;;
45728;SDS011;31439;53.512;10.206;2023-09-12T03:53:02;55.65;;;40.38;;
45728;SDS011;31439;53.512;10.206;2023-09-12T03:55:27;60.13;;;41.75;;
45728;SDS011;31439;53.512;10.206;2023-09-12T03:57:53;54.33;;;40.88;;
45728;SDS011;31439;53.512;10.206;2023-09-12T04:00:19;58.22;;;40.85;;
45728;SDS011;31439;53.512;10.206;2023-09-12T04:02:44;58.38;;;41.03;;
45728;SDS011;31439;53.512;10.206;2023-09-12T04:05:10;61.83;;;42.45;;
45728;SDS011;31439;53.512;10.206;2023-09-12T04:07:35;61.92;;;43.17;;
45728;SDS011;31439;53.512;10.206;2023-09-12T04:10:01;58.15;;;41.85;;
45728;SDS011;31439;53.512;10.206;2023-09-12T04:12:27;58.13;;;42.33;;
45728;SDS011;31439;53.512;10.206;2023-09-12T04:14:52;63.20;;;43.42;;
45728;SDS011;31439;53.512;10.206;2023-09-12T04:17:19;57.70;;;42.40;;
45728;SDS011;31439;53.512;10.206;2023-09-12T04:19:45;60.83;;;41.22;;
45728;SDS011;31439;53.512;10.206;2023-09-12T04:22:11;62.30;;;43.10;;
45728;SDS011;31439;53.512;10.206;2023-09-12T04:24:36;67.18;;;45.38;;
45728;SDS011;31439;53.512;10.206;2023-09-12T04:27:02;64.05;;;45.28;;
45728;SDS011;31439;53.512;10.206;2023-09-12T04:29:28;69.55;;;44.85;;
45728;SDS011;31439;53.512;10.206;2023-09-12T04:31:54;66.03;;;43.80;;
45728;SDS011;31439;53.512;10.206;2023-09-12T04:34:24;67.60;;;45.83;;
45728;SDS011;31439;53.512;10.206;2023-09-12T04:36:50;71.43;;;46.38;;
45728;SDS011;31439;53.512;10.206;2023-09-12T04:39:16;66.20;;;47.53;;
45728;SDS011;31439;53.512;10.206;2023-09-12T04:41:42;67.60;;;46.38;;
45728;SDS011;31439;53.512;10.206;2023-09-12T04:44:08;63.75;;;45.00;;
45728;SDS011;31439;53.512;10.206;2023-09-12T04:46:33;70.82;;;47.50;;
45728;SDS011;31439;53.512;10.206;2023-09-12T04:48:59;66.47;;;46.03;;
45728;SDS011;31439;53.512;10.206;2023-09-12T04:51:24;66.00;;;47.20;;
45728;SDS011;31439;53.512;10.206;2023-09-12T04:53:52;66.93;;;47.83;;
45728;SDS011;31439;53.512;10.206;2023-09-12T04:56:17;66.72;;;47.10;;
45728;SDS011;31439;53.512;10.206;2023-09-12T04:58:43;70.85;;;47.22;;
45728;SDS011;31439;53.512;10.206;2023-09-12T05:01:09;68.90;;;46.50;;
45728;SDS011;31439;53.512;10.206;2023-09-12T05:03:34;68.13;;;45.78;;
45728;SDS011;31439;53.512;10.206;2023-09-12T05:06:00;68.25;;;45.40;;
45728;SDS011;31439;53.512;10.206;2023-09-12T05:08:26;62.45;;;44.25;;
45728;SDS011;31439;53.512;10.206;2023-09-12T05:10:52;63.85;;;45.72;;
45728;SDS011;31439;53.512;10.206;2023-09-12T05:13:17;67.03;;;45.90;;
45728;SDS011;31439;53.512;10.206;2023-09-12T05:15:44;67.97;;;45.55;;
45728;SDS011;31439;53.512;10.206;2023-09-12T05:18:09;65.13;;;45.35;;
45728;SDS011;31439;53.512;10.206;2023-09-12T05:20:35;63.58;;;44.22;;
45728;SDS011;31439;53.512;10.206;2023-09-12T05:23:01;66.53;;;44.47;;
45728;SDS011;31439;53.512;10.206;2023-09-12T05:25:27;65.93;;;45.08;;
45728;SDS011;31439;53.512;10.206;2023-09-12T05:27:52;61.58;;;42.83;;
45728;SDS011;31439;53.512;10.206;2023-09-12T05:30:18;63.17;;;42.60;;
45728;SDS011;31439;53.512;10.206;2023-09-12T05:32:44;58.72;;;41.58;;
45728;SDS011;31439;53.512;10.206;2023-09-12T05:35:09;57.15;;;41.53;;
45728;SDS011;31439;53.512;10.206;2023-09-12T05:37:35;58.20;;;42.95;;
45728;SDS011;31439;53.512;10.206;2023-09-12T05:40:00;60.65;;;43.83;;
45728;SDS011;31439;53.512;10.206;2023-09-12T05:42:26;58.95;;;42.17;;
45728;SDS011;31439;53.512;10.206;2023-09-12T05:44:52;62.03;;;42.35;;
45728;SDS011;31439;53.512;10.206;2023-09-12T05:47:21;60.00;;;42.67;;
45728;SDS011;31439;53.512;10.206;2023-09-12T05:49:47;65.15;;;42.88;;
45728;SDS011;31439;53.512;10.206;2023-09-12T05:52:12;60.63;;;42.15;;
45728;SDS011;31439;53.512;10.206;2023-09-12T05:54:38;60.92;;;43.58;;
45728;SDS011;31439;53.512;10.206;2023-09-12T05:57:06;65.05;;;42.72;;
45728;SDS011;31439;53.512;10.206;2023-09-12T05:59:32;62.70;;;43.35;;
45728;SDS011;31439;53.512;10.206;2023-09-12T06:01:58;64.20;;;44.30;;
45728;SDS011;31439;53.512;10.206;2023-09-12T06:04:23;62.80;;;43.75;;
45728;SDS011;31439;53.512;10.206;2023-09-12T06:06:49;66.38;;;44.13;;
45728;SDS011;31439;53.512;10.206;2023-09-12T06:09:14;64.63;;;43.70;;
45728;SDS011;31439;53.512;10.206;2023-09-12T06:11:40;63.63;;;43.30;;
45728;SDS011;31439;53.512;10.206;2023-09-12T06:14:06;24.48;;;18.25;;
45728;SDS011;31439;53.512;10.206;2023-09-12T06:16:31;38.55;;;28.08;;
45728;SDS011;31439;53.512;10.206;2023-09-12T06:18:57;59.83;;;41.97;;
45728;SDS011;31439;53.512;10.206;2023-09-12T06:21:25;56.92;;;41.00;;
45728;SDS011;31439;53.512;10.206;2023-09-12T06:26:36;59.38;;;41.45;;
45728;SDS011;31439;53.512;10.206;2023-09-12T06:29:02;55.53;;;39.60;;
45728;SDS011;31439;53.512;10.206;2023-09-12T06:31:28;56.95;;;40.38;;
45728;SDS011;31439;53.512;10.206;2023-09-12T06:33:54;61.53;;;42.17;;
45728;SDS011;31439;53.512;10.206;2023-09-12T06:36:20;59.35;;;41.25;;
45728;SDS011;31439;53.512;10.206;2023-09-12T06:38:45;59.13;;;41.28;;
45728;SDS011;31439;53.512;10.206;2023-09-12T06:41:11;59.70;;;40.92;;
45728;SDS011;31439;53.512;10.206;2023-09-12T06:43:36;62.47;;;42.05;;
45728;SDS011;31439;53.512;10.206;2023-09-12T06:46:02;61.97;;;41.50;;
45728;SDS011;31439;53.512;10.206;2023-09-12T06:48:28;56.75;;;41.20;;
45728;SDS011;31439;53.512;10.206;2023-09-12T06:50:55;60.40;;;40.92;;
45728;SDS011;31439;53.512;10.206;2023-09-12T06:53:21;60.53;;;40.45;;
45728;SDS011;31439;53.512;10.206;2023-09-12T06:55:47;63.65;;;41.55;;
45728;SDS011;31439;53.512;10.206;2023-09-12T06:58:12;60.60;;;39.30;;
45728;SDS011;31439;53.512;10.206;2023-09-12T07:00:38;58.22;;;38.92;;
45728;SDS011;31439;53.512;10.206;2023-09-12T07:03:03;57.97;;;39.17;;
45728;SDS011;31439;53.512;10.206;2023-09-12T07:05:29;49.30;;;36.13;;
45728;SDS011;31439;53.512;10.206;2023-09-12T07:07:55;50.78;;;37.45;;
45728;SDS011;31439;53.512;10.206;2023-09-12T07:10:20;52.75;;;37.70;;
45728;SDS011;31439;53.512;10.206;2023-09-12T07:12:46;59.55;;;38.50;;
45728;SDS011;31439;53.512;10.206;2023-09-12T07:15:11;55.65;;;38.63;;
45728;SDS011;31439;53.512;10.206;2023-09-12T07:17:38;50.63;;;37.30;;
45728;SDS011;31439;53.512;10.206;2023-09-12T07:20:04;53.78;;;38.35;;
45728;SDS011;31439;53.512;10.206;2023-09-12T07:22:36;51.00;;;37.83;;
45728;SDS011;31439;53.512;10.206;2023-09-12T07:25:02;55.42;;;39.67;;
45728;SDS011;31439;53.512;10.206;2023-09-12T07:27:28;53.78;;;38.17;;
45728;SDS011;31439;53.512;10.206;2023-09-12T07:29:54;57.22;;;39.90;;
45728;SDS011;31439;53.512;10.206;2023-09-12T07:32:19;57.38;;;39.72;;
45728;SDS011;31439;53.512;10.206;2023-09-12T07:34:46;54.63;;;37.03;;
45728;SDS011;31439;53.512;10.206;2023-09-12T07:37:13;55.58;;;39.25;;
45728;SDS011;31439;53.512;10.206;2023-09-12T07:39:39;52.63;;;38.45;;
45728;SDS011;31439;53.512;10.206;2023-09-12T07:42:05;55.17;;;38.88;;
45728;SDS011;31439;53.512;10.206;2023-09-12T07:44:30;58.15;;;39.85;;
45728;SDS011;31439;53.512;10.206;2023-09-12T07:46:56;58.95;;;39.33;;
45728;SDS011;31439;53.512;10.206;2023-09-12T07:49:21;58.38;;;41.42;;
45728;SDS011;31439;53.512;10.206;2023-09-12T07:51:49;31.42;;;24.10;;
45728;SDS011;31439;53.512;10.206;2023-09-12T07:54:15;56.35;;;38.03;;
45728;SDS011;31439;53.512;10.206;2023-09-12T07:56:42;40.47;;;28.65;;
45728;SDS011;31439;53.512;10.206;2023-09-12T07:59:08;56.78;;;39.28;;
45728;SDS011;31439;53.512;10.206;2023-09-12T08:01:35;52.50;;;39.60;;
45728;SDS011;31439;53.512;10.206;2023-09-12T08:04:00;61.75;;;41.10;;
45728;SDS011;31439;53.512;10.206;2023-09-12T08:06:26;58.40;;;40.95;;
45728;SDS011;31439;53.512;10.206;2023-09-12T08:08:52;57.83;;;40.65;;
45728;SDS011;31439;53.512;10.206;2023-09-12T08:11:17;56.33;;;39.80;;
45728;SDS011;31439;53.512;10.206;2023-09-12T08:13:43;57.00;;;39.72;;
45728;SDS011;31439;53.512;10.206;2023-09-12T08:16:10;56.63;;;40.17;;
45728;SDS011;31439;53.512;10.206;2023-09-12T08:18:36;57.97;;;39.70;;
45728;SDS011;31439;53.512;10.206;2023-09-12T08:21:01;59.03;;;40.15;;
45728;SDS011;31439;53.512;10.206;2023-09-12T08:23:27;55.33;;;38.85;;
45728;SDS011;31439;53.512;10.206;2023-09-12T08:25:53;56.05;;;37.75;;
45728;SDS011;31439;53.512;10.206;2023-09-12T08:28:18;59.33;;;39.83;;
45728;SDS011;31439;53.512;10.206;2023-09-12T08:30:44;56.70;;;39.30;;
45728;SDS011;31439;53.512;10.206;2023-09-12T08:33:13;61.42;;;38.92;;
45728;SDS011;31439;53.512;10.206;2023-09-12T08:35:39;55.60;;;38.97;;
45728;SDS011;31439;53.512;10.206;2023-09-12T08:38:05;58.05;;;38.78;;
45728;SDS011;31439;53.512;10.206;2023-09-12T08:40:32;53.90;;;38.22;;
45728;SDS011;31439;53.512;10.206;2023-09-12T08:42:58;54.20;;;37.42;;
45728;SDS011;31439;53.512;10.206;2023-09-12T08:45:23;53.95;;;35.88;;
45728;SDS011;31439;53.512;10.206;2023-09-12T08:47:50;47.10;;;36.13;;
45728;SDS011;31439;53.512;10.206;2023-09-12T08:50:18;47.15;;;34.63;;
45728;SDS011;31439;53.512;10.206;2023-09-12T08:52:46;45.08;;;32.78;;
45728;SDS011;31439;53.512;10.206;2023-09-12T08:55:12;47.63;;;33.30;;
45728;SDS011;31439;53.512;10.206;2023-09-12T08:57:39;43.88;;;32.28;;
45728;SDS011;31439;53.512;10.206;2023-09-12T09:00:07;44.40;;;32.42;;
45728;SDS011;31439;53.512;10.206;2023-09-12T09:02:38;42.15;;;30.48;;
45728;SDS011;31439;53.512;10.206;2023-09-12T09:05:05;44.70;;;31.40;;
45728;SDS011;31439;53.512;10.206;2023-09-12T09:07:33;48.13;;;32.20;;
45728;SDS011;31439;53.512;10.206;2023-09-12T09:10:07;44.60;;;32.33;;
45728;SDS011;31439;53.512;10.206;2023-09-12T09:12:35;41.63;;;30.52;;
45728;SDS011;31439;53.512;10.206;2023-09-12T09:15:19;40.00;;;29.20;;
45728;SDS011;31439;53.512;10.206;2023-09-12T09:17:53;44.03;;;30.63;;
45728;SDS011;31439;53.512;10.206;2023-09-12T09:20:30;35.78;;;26.17;;
45728;SDS011;31439;53.512;10.206;2023-09-12T09:23:00;36.25;;;28.20;;
45728;SDS011;31439;53.512;10.206;2023-09-12T09:25:30;38.75;;;28.83;;
45728;SDS011;31439;53.512;10.206;2023-09-12T09:28:02;29.70;;;23.08;;
45728;SDS011;31439;53.512;10.206;2023-09-12T09:30:39;39.33;;;29.20;;
45728;SDS011;31439;53.512;10.206;2023-09-12T09:33:07;38.67;;;28.90;;
45728;SDS011;31439;53.512;10.206;2023-09-12T09:35:33;38.33;;;28.98;;
45728;SDS011;31439;53.512;10.206;2023-09-12T09:37:59;39.40;;;28.17;;
45728;SDS011;31439;53.512;10.206;2023-09-12T09:40:25;39.17;;;28.35;;
45728;SDS011;31439;53.512;10.206;2023-09-12T09:42:54;34.90;;;27.65;;
45728;SDS011;31439;53.512;10.206;2023-09-12T09:45:29;34.72;;;26.48;;
45728;SDS011;31439;53.512;10.206;2023-09-12T09:47:57;31.80;;;25.05;;
45728;SDS011;31439;53.512;10.206;2023-09-12T09:50:29;29.70;;;23.67;;
45728;SDS011;31439;53.512;10.206;2023-09-12T09:52:55;29.73;;;23.65;;
45728;SDS011;31439;53.512;10.206;2023-09-12T09:55:22;33.42;;;24.40;;
45728;SDS011;31439;53.512;10.206;2023-09-12T09:57:48;33.17;;;23.60;;
45728;SDS011;31439;53.512;10.206;2023-09-12T10:00:17;32.60;;;25.15;;
45728;SDS011;31439;53.512;10.206;2023-09-12T10:02:43;35.15;;;26.80;;
45728;SDS011;31439;53.512;10.206;2023-09-12T10:05:11;38.15;;;26.70;;
45728;SDS011;31439;53.512;10.206;2023-09-12T10:07:38;43.60;;;28.00;;
45728;SDS011;31439;53.512;10.206;2023-09-12T10:10:05;39.85;;;29.85;;
45728;SDS011;31439;53.512;10.206;2023-09-12T10:12:34;39.17;;;29.48;;
45728;SDS011;31439;53.512;10.206;2023-09-12T10:15:01;40.58;;;30.08;;
45728;SDS011;31439;53.512;10.206;2023-09-12T10:17:35;39.72;;;28.92;;
45728;SDS011;31439;53.512;10.206;2023-09-12T10:20:02;42.63;;;29.90;;
45728;SDS011;31439;53.512;10.206;2023-09-12T10:22:35;39.95;;;30.23;;
45728;SDS011;31439;53.512;10.206;2023-09-12T10:25:05;41.35;;;28.73;;
45728;SDS011;31439;53.512;10.206;2023-09-12T10:27:32;43.65;;;31.08;;
45728;SDS011;31439;53.512;10.206;2023-09-12T10:29:58;38.72;;;29.33;;
45728;SDS011;31439;53.512;10.206;2023-09-12T10:32:25;39.80;;;30.73;;
45728;SDS011;31439;53.512;10.206;2023-09-12T10:34:52;37.88;;;29.45;;
45728;SDS011;31439;53.512;10.206;2023-09-12T10:37:18;40.90;;;30.02;;
45728;SDS011;31439;53.512;10.206;2023-09-12T10:39:45;41.10;;;29.33;;
45728;SDS011;31439;53.512;10.206;2023-09-12T10:42:12;36.88;;;28.02;;
45728;SDS011;31439;53.512;10.206;2023-09-12T10:44:38;39.38;;;28.80;;
45728;SDS011;31439;53.512;10.206;2023-09-12T10:47:04;37.67;;;28.27;;
45728;SDS011;31439;53.512;10.206;2023-09-12T10:49:30;37.75;;;27.48;;
45728;SDS011;31439;53.512;10.206;2023-09-12T10:51:56;40.78;;;28.83;;
45728;SDS011;31439;53.512;10.206;2023-09-12T10:54:26;34.22;;;26.83;;
45728;SDS011;31439;53.512;10.206;2023-09-12T10:57:05;33.55;;;27.05;;
45728;SDS011;31439;53.512;10.206;2023-09-12T10:59:33;36.55;;;28.20;;
45728;SDS011;31439;53.512;10.206;2023-09-12T11:04:56;33.67;;;27.33;;
45728;SDS011;31439;53.512;10.206;2023-09-12T11:07:32;37.83;;;27.80;;
45728;SDS011;31439;53.512;10.206;2023-09-12T11:12:39;31.85;;;24.70;;
45728;SDS011;31439;53.512;10.206;2023-09-12T11:15:06;31.13;;;24.40;;
45728;SDS011;31439;53.512;10.206;2023-09-12T11:17:40;30.10;;;23.70;;
45728;SDS011;31439;53.512;10.206;2023-09-12T11:20:07;28.70;;;22.48;;
45728;SDS011;31439;53.512;10.206;2023-09-12T11:22:36;29.63;;;23.00;;
45728;SDS011;31439;53.512;10.206;2023-09-12T11:25:04;25.90;;;21.63;;
45728;SDS011;31439;53.512;10.206;2023-09-12T11:30:21;32.10;;;22.45;;
45728;SDS011;31439;53.512;10.206;2023-09-12T11:32:49;28.38;;;22.50;;
45728;SDS011;31439;53.512;10.206;2023-09-12T11:35:16;25.55;;;21.52;;
45728;SDS011;31439;53.512;10.206;2023-09-12T11:37:47;25.25;;;21.08;;
45728;SDS011;31439;53.512;10.206;2023-09-12T11:40:15;23.77;;;20.95;;
45728;SDS011;31439;53.512;10.206;2023-09-12T11:42:43;24.90;;;20.10;;
45728;SDS011;31439;53.512;10.206;2023-09-12T11:45:09;25.27;;;20.98;;
45728;SDS011;31439;53.512;10.206;2023-09-12T11:47:39;24.13;;;20.05;;
45728;SDS011;31439;53.512;10.206;2023-09-12T11:50:06;22.42;;;19.23;;
45728;SDS011;31439;53.512;10.206;2023-09-12T11:52:35;22.60;;;18.52;;
45728;SDS011;31439;53.512;10.206;2023-09-12T11:55:02;26.38;;;20.00;;
45728;SDS011;31439;53.512;10.206;2023-09-12T11:57:28;25.23;;;19.55;;
45728;SDS011;31439;53.512;10.206;2023-09-12T11:59:55;21.42;;;18.70;;
45728;SDS011;31439;53.512;10.206;2023-09-12T12:02:21;23.27;;;19.08;;
45728;SDS011;31439;53.512;10.206;2023-09-12T12:04:48;23.10;;;18.33;;
45728;SDS011;31439;53.512;10.206;2023-09-12T12:07:15;20.67;;;17.90;;
45728;SDS011;31439;53.512;10.206;2023-09-12T12:09:41;19.90;;;17.42;;
45728;SDS011;31439;53.512;10.206;2023-09-12T12:12:11;23.23;;;16.98;;
45728;SDS011;31439;53.512;10.206;2023-09-12T12:14:38;18.85;;;16.23;;
45728;SDS011;31439;53.512;10.206;2023-09-12T12:17:05;21.20;;;16.50;;
45728;SDS011;31439;53.512;10.206;2023-09-12T12:19:35;18.10;;;15.68;;
45728;SDS011;31439;53.512;10.206;2023-09-12T12:22:02;18.67;;;16.00;;
45728;SDS011;31439;53.512;10.206;2023-09-12T12:24:36;20.17;;;17.20;;
45728;SDS011;31439;53.512;10.206;2023-09-12T12:27:09;17.08;;;15.07;;
45728;SDS011;31439;53.512;10.206;2023-09-12T12:29:36;20.23;;;15.98;;
45728;SDS011;31439;53.512;10.206;2023-09-12T12:32:04;19.00;;;16.02;;
45728;SDS011;31439;53.512;10.206;2023-09-12T12:34:30;19.00;;;16.10;;
45728;SDS011;31439;53.512;10.206;2023-09-12T12:36:56;19.17;;;15.85;;
45728;SDS011;31439;53.512;10.206;2023-09-12T12:39:22;17.13;;;15.15;;
45728;SDS011;31439;53.512;10.206;2023-09-12T12:41:51;19.85;;;15.30;;
45728;SDS011;31439;53.512;10.206;2023-09-12T12:44:18;18.02;;;15.52;;
45728;SDS011;31439;53.512;10.206;2023-09-12T12:46:50;19.10;;;15.82;;
45728;SDS011;31439;53.512;10.206;2023-09-12T12:49:17;18.15;;;15.10;;
45728;SDS011;31439;53.512;10.206;2023-09-12T12:51:44;18.05;;;16.02;;
45728;SDS011;31439;53.512;10.206;2023-09-12T12:54:10;17.50;;;15.65;;
45728;SDS011;31439;53.512;10.206;2023-09-12T12:56:35;16.77;;;14.70;;
45728;SDS011;31439;53.512;10.206;2023-09-12T12:59:03;17.77;;;15.13;;
45728;SDS011;31439;53.512;10.206;2023-09-12T13:01:33;18.85;;;15.35;;
45728;SDS011;31439;53.512;10.206;2023-09-12T13:03:59;18.85;;;14.82;;
45728;SDS011;31439;53.512;10.206;2023-09-12T13:06:25;18.35;;;14.88;;
45728;SDS011;31439;53.512;10.206;2023-09-12T13:08:52;17.35;;;15.50;;
45728;SDS011;31439;53.512;10.206;2023-09-12T13:11:21;18.35;;;14.20;;
45728;SDS011;31439;53.512;10.206;2023-09-12T13:13:48;19.92;;;14.93;;
45728;SDS011;31439;53.512;10.206;2023-09-12T13:16:14;16.63;;;14.73;;
45728;SDS011;31439;53.512;10.206;2023-09-12T13:18:40;16.17;;;14.43;;
45728;SDS011;31439;53.512;10.206;2023-09-12T13:21:06;17.92;;;14.82;;
45728;SDS011;31439;53.512;10.206;2023-09-12T13:23:36;18.00;;;14.68;;
45728;SDS011;31439;53.512;10.206;2023-09-12T13:26:03;16.17;;;14.48;;
45728;SDS011;31439;53.512;10.206;2023-09-12T13:28:29;15.80;;;13.48;;
45728;SDS011;31439;53.512;10.206;2023-09-12T13:30:55;16.85;;;14.38;;
45728;SDS011;31439;53.512;10.206;2023-09-12T13:33:22;16.88;;;13.48;;
45728;SDS011;31439;53.512;10.206;2023-09-12T13:35:48;15.10;;;13.50;;
45728;SDS011;31439;53.512;10.206;2023-09-12T13:38:15;15.38;;;13.38;;
45728;SDS011;31439;53.512;10.206;2023-09-12T13:40:42;14.40;;;12.90;;
45728;SDS011;31439;53.512;10.206;2023-09-12T13:43:09;15.23;;;12.57;;
45728;SDS011;31439;53.512;10.206;2023-09-12T13:45:35;15.13;;;13.50;;
45728;SDS011;31439;53.512;10.206;2023-09-12T13:48:01;15.18;;;13.07;;
45728;SDS011;31439;53.512;10.206;2023-09-12T13:50:29;14.82;;;13.02;;
45728;SDS011;31439;53.512;10.206;2023-09-12T13:52:55;17.63;;;14.23;;
45728;SDS011;31439;53.512;10.206;2023-09-12T13:55:22;15.43;;;12.85;;
45728;SDS011;31439;53.512;10.206;2023-09-12T13:57:48;16.27;;;13.23;;
45728;SDS011;31439;53.512;10.206;2023-09-12T14:00:13;14.15;;;12.38;;
45728;SDS011;31439;53.512;10.206;2023-09-12T14:02:39;14.25;;;12.75;;
45728;SDS011;31439;53.512;10.206;2023-09-12T14:05:05;14.70;;;12.98;;
45728;SDS011;31439;53.512;10.206;2023-09-12T14:07:31;15.82;;;12.63;;
45728;SDS011;31439;53.512;10.206;2023-09-12T14:09:56;14.73;;;12.18;;
45728;SDS011;31439;53.512;10.206;2023-09-12T14:12:22;14.18;;;12.68;;
45728;SDS011;31439;53.512;10.206;2023-09-12T14:14:48;14.85;;;12.02;;
45728;SDS011;31439;53.512;10.206;2023-09-12T14:17:14;16.20;;;11.68;;
45728;SDS011;31439;53.512;10.206;2023-09-12T14:19:40;16.48;;;12.75;;
45728;SDS011;31439;53.512;10.206;2023-09-12T14:22:06;13.65;;;11.60;;
45728;SDS011;31439;53.512;10.206;2023-09-12T14:24:31;15.90;;;12.43;;